Terminal Aerodrome Forecast
Issued by NWS

Home | Current Version | Previous Version | Text Only | Print | Product List | Glossary On
Versions: 1 2 3 4 5 6 7 8 9 10 11 12 13 14 15 16 17 18 19 20 21 22 23 24 25 26 27 28 29 30 31 32 33 34 35 36 37 38 39 40 41 42 43 44 45 46 47 48
000
FTUS43 KDLH 262300
TAFHYR
TAF
KHYR 262339Z 2700/2724 36006KT P6SM -RA SCT008 BKN040 OVC080
      TEMPO 2700/2703 6SM -RA BKN008 BKN030 OVC070
     FM270700 VRB05KT 4SM BR VCSH BKN008 OVC018
      TEMPO 2708/2712 1SM BR OVC006
     FM271400 VRB05KT P6SM BKN012
     FM271800 28006KT P6SM SCT030
     FM272200 30006KT P6SM VCTS SCT050CB=

USA.gov is the U.S. government's official web portal to all federal, state and local government web resources and services.